Time;durP1;ratioP1;P1;durP2;ratioP2;P2;SDS_P1;SDS_P2;PMS_P1;PMS_P2;Temp;Humidity;BMP_temperature;BMP_pressure;BME280_temperature;BME280_humidity;BME280_pressure;Samples;Min_cycle;Max_cycle;Signal;HPM_P1;HPM_P2
2023/06/06 00:00:34;;;;;;;1.77;1.63;;;;;;;;;;5051699;28;20831;-85
2023/06/06 00:03:02;;;;;;;1.70;1.60;;;;;;;;;;5040605;28;20198;-86
2023/06/06 00:05:29;;;;;;;1.80;1.70;;;;;;;;;;5049486;28;20204;-85
2023/06/06 00:07:57;;;;;;;1.58;1.48;;;;;;;;;;5033176;28;20302;-84
2023/06/06 00:10:25;;;;;;;1.23;1.15;;;;;;;;;;5047750;28;20217;-85
2023/06/06 00:12:54;;;;;;;1.50;1.40;;;;;;;;;;5045125;28;20238;-85
2023/06/06 00:15:24;;;;;;;1.35;1.25;;;;;;;;;;5043803;28;20213;-85
2023/06/06 00:17:53;;;;;;;2.08;1.98;;;;;;;;;;5039402;28;20568;-84
2023/06/06 00:20:20;;;;;;;1.50;1.40;;;;;;;;;;5057342;28;20296;-86
2023/06/06 00:22:48;;;;;;;1.95;1.77;;;;;;;;;;5053049;28;20768;-84
2023/06/06 00:25:16;;;;;;;1.48;1.38;;;;;;;;;;5045262;28;20296;-85
2023/06/06 00:27:44;;;;;;;1.77;1.67;;;;;;;;;;5035527;28;20576;-85
2023/06/06 00:30:12;;;;;;;1.75;1.60;;;;;;;;;;5057657;28;20299;-86
2023/06/06 00:32:41;;;;;;;2.17;1.98;;;;;;;;;;5061039;28;20205;-85
2023/06/06 00:35:10;;;;;;;1.30;1.20;;;;;;;;;;5059470;28;20209;-86
2023/06/06 00:37:38;;;;;;;2.03;1.60;;;;;;;;;;5061335;28;20208;-85
2023/06/06 00:40:09;;;;;;;2.05;1.50;;;;;;;;;;5053648;28;20308;-86
2023/06/06 00:42:36;;;;;;;1.70;1.52;;;;;;;;;;5054493;28;20213;-87
2023/06/06 00:45:04;;;;;;;1.52;1.42;;;;;;;;;;5045302;28;20213;-86
2023/06/06 00:47:32;;;;;;;1.70;1.60;;;;;;;;;;5042469;28;20197;-84
2023/06/06 00:50:01;;;;;;;2.83;2.00;;;;;;;;;;5039201;28;20859;-86
2023/06/06 00:52:29;;;;;;;1.88;1.77;;;;;;;;;;5034768;28;20287;-84
2023/06/06 00:54:57;;;;;;;1.90;1.70;;;;;;;;;;5034386;28;20202;-87
2023/06/06 00:57:26;;;;;;;1.73;1.48;;;;;;;;;;5037686;28;20198;-86
2023/06/06 00:59:54;;;;;;;2.80;1.70;;;;;;;;;;5034228;28;20276;-85
2023/06/06 01:02:24;;;;;;;1.75;1.65;;;;;;;;;;5034657;28;20226;-86
2023/06/06 01:04:52;;;;;;;2.30;1.80;;;;;;;;;;5050403;28;20213;-85
2023/06/06 01:07:21;;;;;;;1.75;1.50;;;;;;;;;;5051520;28;20197;-85
2023/06/06 01:09:49;;;;;;;2.00;1.85;;;;;;;;;;5047777;28;20253;-85
2023/06/06 01:12:29;;;;;;;2.00;1.80;;;;;;;;;;5037354;28;20290;-86
2023/06/06 01:15:05;;;;;;;1.58;1.48;;;;;;;;;;5046789;28;20206;-86
2023/06/06 01:17:33;;;;;;;1.60;1.50;;;;;;;;;;5050874;28;20281;-86
2023/06/06 01:20:02;;;;;;;1.58;1.48;;;;;;;;;;5048449;28;20663;-84
2023/06/06 01:22:32;;;;;;;1.75;1.65;;;;;;;;;;5048770;28;20295;-86
2023/06/06 01:24:59;;;;;;;1.77;1.67;;;;;;;;;;5043238;28;20210;-86
2023/06/06 01:27:28;;;;;;;3.70;2.20;;;;;;;;;;5047090;28;20205;-85
2023/06/06 01:29:55;;;;;;;1.80;1.67;;;;;;;;;;5041712;28;20217;-85
2023/06/06 01:32:28;;;;;;;1.67;1.58;;;;;;;;;;5049910;28;20204;-86
2023/06/06 01:35:16;;;;;;;1.70;1.58;;;;;;;;;;5052053;28;20205;-86
2023/06/06 01:37:52;;;;;;;2.70;1.48;;;;;;;;;;5047315;28;20288;-86
2023/06/06 01:40:21;;;;;;;1.70;1.60;;;;;;;;;;5073606;28;20220;-86
2023/06/06 01:42:50;;;;;;;2.10;1.90;;;;;;;;;;5062970;28;20682;-87
2023/06/06 01:45:21;;;;;;;1.63;1.52;;;;;;;;;;5033900;28;20205;-84
2023/06/06 01:47:49;;;;;;;2.33;1.92;;;;;;;;;;5033157;28;20287;-85
2023/06/06 01:50:17;;;;;;;2.50;2.30;;;;;;;;;;5033394;28;20313;-86
2023/06/06 01:52:46;;;;;;;1.75;1.65;;;;;;;;;;5033241;28;20206;-85
2023/06/06 01:55:13;;;;;;;2.22;2.05;;;;;;;;;;5040454;28;20225;-86
2023/06/06 01:57:41;;;;;;;1.85;1.75;;;;;;;;;;5053063;28;20289;-85
2023/06/06 02:00:10;;;;;;;1.73;1.63;;;;;;;;;;5052455;28;20217;-85
2023/06/06 02:02:38;;;;;;;1.60;1.50;;;;;;;;;;5053395;28;20280;-85
2023/06/06 02:05:06;;;;;;;1.85;1.45;;;;;;;;;;5034535;28;20293;-85
2023/06/06 02:07:35;;;;;;;2.42;1.73;;;;;;;;;;5033086;28;20209;-85
2023/06/06 02:10:04;;;;;;;2.58;2.33;;;;;;;;;;5037663;28;20284;-85
2023/06/06 02:12:32;;;;;;;2.60;1.55;;;;;;;;;;5040478;28;20709;-86
2023/06/06 02:15:00;;;;;;;2.33;1.85;;;;;;;;;;5046505;28;20204;-86
2023/06/06 02:17:28;;;;;;;2.85;1.70;;;;;;;;;;5053491;28;20259;-86
2023/06/06 02:19:55;;;;;;;2.00;1.80;;;;;;;;;;5033104;28;20230;-85
2023/06/06 02:22:23;;;;;;;1.83;1.73;;;;;;;;;;5056526;28;20308;-86
2023/06/06 02:24:52;;;;;;;2.15;1.52;;;;;;;;;;5048655;28;20200;-85
2023/06/06 02:27:21;;;;;;;3.03;1.52;;;;;;;;;;5042357;28;20201;-85
2023/06/06 02:29:48;;;;;;;2.40;1.73;;;;;;;;;;5044164;28;20316;-85
2023/06/06 02:32:16;;;;;;;2.65;2.22;;;;;;;;;;5063648;28;20223;-86
2023/06/06 02:34:43;;;;;;;1.50;1.40;;;;;;;;;;5061621;28;20304;-85
2023/06/06 02:37:11;;;;;;;1.98;1.77;;;;;;;;;;5047668;28;20304;-85
2023/06/06 02:39:39;;;;;;;2.42;2.30;;;;;;;;;;5045099;28;20233;-85
2023/06/06 02:42:08;;;;;;;1.90;1.63;;;;;;;;;;5032452;28;20229;-85
2023/06/06 02:44:36;;;;;;;3.20;1.80;;;;;;;;;;5050961;28;20202;-85
2023/06/06 02:47:04;;;;;;;2.13;1.90;;;;;;;;;;5038816;28;20285;-85
2023/06/06 02:49:32;;;;;;;1.70;1.60;;;;;;;;;;5054090;28;20240;-85
2023/06/06 02:51:59;;;;;;;1.67;1.58;;;;;;;;;;5052543;28;20197;-85
2023/06/06 02:54:27;;;;;;;1.90;1.80;;;;;;;;;;5047644;28;20201;-84
2023/06/06 02:56:55;;;;;;;1.90;1.80;;;;;;;;;;5038915;28;20237;-85
2023/06/06 02:59:22;;;;;;;3.03;2.50;;;;;;;;;;5056125;28;20630;-86
2023/06/06 03:01:51;;;;;;;1.77;1.67;;;;;;;;;;5055372;28;20225;-86
2023/06/06 03:04:18;;;;;;;1.90;1.80;;;;;;;;;;5051945;28;20296;-86
2023/06/06 03:06:48;;;;;;;1.90;1.77;;;;;;;;;;5051821;28;20289;-86
2023/06/06 03:09:15;;;;;;;3.17;2.20;;;;;;;;;;5043219;28;20225;-84
2023/06/06 03:11:43;;;;;;;2.20;2.10;;;;;;;;;;5052338;28;20198;-86
2023/06/06 03:14:12;;;;;;;1.88;1.77;;;;;;;;;;5034465;28;20293;-87
2023/06/06 03:16:39;;;;;;;3.83;1.63;;;;;;;;;;5032554;28;20304;-84
2023/06/06 03:19:10;;;;;;;2.95;1.80;;;;;;;;;;5035475;28;20202;-86
2023/06/06 03:21:38;;;;;;;1.90;1.80;;;;;;;;;;5035775;28;20265;-86
2023/06/06 03:24:06;;;;;;;2.13;1.88;;;;;;;;;;5055240;28;20594;-86
2023/06/06 03:26:34;;;;;;;2.72;1.90;;;;;;;;;;5053296;28;20219;-84
2023/06/06 03:29:02;;;;;;;2.60;1.88;;;;;;;;;;5052349;28;20202;-85
2023/06/06 03:31:29;;;;;;;1.95;1.48;;;;;;;;;;5045089;28;20206;-85
2023/06/06 03:33:57;;;;;;;3.08;1.92;;;;;;;;;;5047031;28;20288;-85
2023/06/06 03:36:27;;;;;;;1.98;1.80;;;;;;;;;;5047135;28;20241;-86
2023/06/06 03:38:54;;;;;;;2.50;2.30;;;;;;;;;;5038910;28;20212;-85
2023/06/06 03:41:22;;;;;;;2.00;1.90;;;;;;;;;;5051683;28;20206;-85
2023/06/06 03:43:49;;;;;;;2.33;2.10;;;;;;;;;;5046763;28;20304;-86
2023/06/06 03:46:17;;;;;;;1.80;1.70;;;;;;;;;;5051699;28;20234;-86
2023/06/06 03:48:44;;;;;;;3.10;1.70;;;;;;;;;;5037285;28;20572;-85
2023/06/06 03:51:11;;;;;;;2.95;2.13;;;;;;;;;;5072886;28;20217;-85
2023/06/06 03:53:40;;;;;;;1.70;1.60;;;;;;;;;;5062562;28;20209;-85
2023/06/06 03:56:08;;;;;;;5.65;2.20;;;;;;;;;;5059526;28;20189;-85
2023/06/06 03:58:36;;;;;;;1.98;1.77;;;;;;;;;;5064026;28;20216;-86
2023/06/06 04:01:04;;;;;;;1.75;1.60;;;;;;;;;;5051599;28;20217;-86
2023/06/06 04:03:36;;;;;;;2.05;1.83;;;;;;;;;;5058753;28;20250;-86
2023/06/06 04:06:04;;;;;;;1.92;1.83;;;;;;;;;;5055356;28;20202;-86
2023/06/06 04:08:32;;;;;;;2.95;1.95;;;;;;;;;;5045274;28;20337;-85
2023/06/06 04:11:01;;;;;;;1.95;1.70;;;;;;;;;;5040480;28;20559;-86
2023/06/06 04:13:29;;;;;;;2.17;1.45;;;;;;;;;;5047238;28;20221;-85
2023/06/06 04:15:56;;;;;;;1.60;1.50;;;;;;;;;;5045125;28;20285;-85
2023/06/06 04:18:24;;;;;;;1.67;1.58;;;;;;;;;;5044141;28;20286;-85
2023/06/06 04:20:52;;;;;;;1.73;1.60;;;;;;;;;;5051733;28;20231;-84
2023/06/06 04:23:20;;;;;;;2.05;1.85;;;;;;;;;;5046874;28;20249;-85
2023/06/06 04:25:48;;;;;;;1.92;1.70;;;;;;;;;;5054255;28;20268;-85
2023/06/06 04:28:19;;;;;;;1.70;1.60;;;;;;;;;;5047330;28;20230;-85
2023/06/06 04:30:51;;;;;;;1.50;1.40;;;;;;;;;;5039613;28;20229;-85
2023/06/06 04:33:19;;;;;;;1.60;1.45;;;;;;;;;;5051137;28;20216;-86
2023/06/06 04:35:46;;;;;;;1.67;1.58;;;;;;;;;;5053855;28;20551;-86
2023/06/06 04:38:18;;;;;;;1.90;1.80;;;;;;;;;;5054170;28;20233;-85
2023/06/06 04:40:50;;;;;;;1.65;1.55;;;;;;;;;;5056198;28;20232;-85
2023/06/06 04:43:23;;;;;;;1.35;1.25;;;;;;;;;;5056563;28;20749;-85
2023/06/06 04:45:53;;;;;;;1.50;1.40;;;;;;;;;;5054232;28;20209;-85
2023/06/06 04:48:25;;;;;;;1.67;1.58;;;;;;;;;;5054437;28;20665;-85
2023/06/06 04:50:53;;;;;;;1.80;1.70;;;;;;;;;;5045140;28;20230;-85
2023/06/06 04:53:21;;;;;;;1.65;1.55;;;;;;;;;;5045629;28;20193;-85
2023/06/06 04:55:49;;;;;;;3.50;3.20;;;;;;;;;;5054087;28;20208;-85
2023/06/06 04:58:20;;;;;;;1.85;1.75;;;;;;;;;;5046255;28;20202;-85
2023/06/06 05:00:48;;;;;;;1.80;1.70;;;;;;;;;;5064623;28;20231;-85
2023/06/06 05:03:19;;;;;;;2.00;1.70;;;;;;;;;;5034197;28;20660;-85
2023/06/06 05:05:49;;;;;;;1.73;1.63;;;;;;;;;;5034895;28;20202;-85
2023/06/06 05:08:17;;;;;;;1.98;1.88;;;;;;;;;;5036200;28;20621;-84
2023/06/06 05:10:44;;;;;;;4.13;2.00;;;;;;;;;;5034800;28;20222;-83
2023/06/06 05:13:11;;;;;;;6.00;3.72;;;;;;;;;;5037097;28;20247;-84
2023/06/06 05:15:40;;;;;;;1.90;1.80;;;;;;;;;;5046783;28;20620;-84
2023/06/06 05:18:08;;;;;;;2.13;1.92;;;;;;;;;;5052166;28;20727;-84
2023/06/06 05:20:35;;;;;;;2.40;1.98;;;;;;;;;;5055094;28;20237;-83
2023/06/06 05:23:04;;;;;;;2.53;2.33;;;;;;;;;;5042792;28;20627;-83
2023/06/06 05:25:32;;;;;;;1.90;1.80;;;;;;;;;;5054297;28;20206;-84
2023/06/06 05:27:59;;;;;;;1.90;1.80;;;;;;;;;;5053660;28;20200;-83
2023/06/06 05:30:27;;;;;;;2.97;1.70;;;;;;;;;;5051057;28;20297;-83
2023/06/06 05:32:56;;;;;;;1.88;1.60;;;;;;;;;;5045172;28;20647;-84
2023/06/06 05:35:23;;;;;;;2.85;1.80;;;;;;;;;;5056607;28;20255;-83
2023/06/06 05:37:51;;;;;;;1.73;1.63;;;;;;;;;;5044465;28;20201;-84
2023/06/06 05:40:19;;;;;;;1.88;1.77;;;;;;;;;;5045843;28;20762;-83
2023/06/06 05:42:46;;;;;;;3.08;1.92;;;;;;;;;;5054246;28;20206;-83
2023/06/06 05:45:14;;;;;;;2.40;2.20;;;;;;;;;;5045870;28;20232;-83
2023/06/06 05:47:41;;;;;;;2.08;1.88;;;;;;;;;;5052086;28;20762;-83
2023/06/06 05:50:11;;;;;;;1.88;1.77;;;;;;;;;;5051273;28;20317;-84
2023/06/06 05:52:39;;;;;;;1.90;1.80;;;;;;;;;;5052426;28;20266;-83
2023/06/06 05:55:10;;;;;;;2.65;2.13;;;;;;;;;;5053186;28;20226;-84
2023/06/06 05:57:38;;;;;;;3.20;2.10;;;;;;;;;;5046548;28;20193;-83
2023/06/06 06:00:08;;;;;;;2.53;1.90;;;;;;;;;;5053536;28;20227;-84
2023/06/06 06:02:36;;;;;;;2.03;1.92;;;;;;;;;;5059185;28;20763;-84
2023/06/06 06:05:05;;;;;;;3.35;2.70;;;;;;;;;;5065996;28;20732;-83
2023/06/06 06:07:33;;;;;;;2.55;2.33;;;;;;;;;;5054362;28;20206;-83
2023/06/06 06:10:02;;;;;;;2.20;2.00;;;;;;;;;;5034671;28;20229;-83
2023/06/06 06:12:29;;;;;;;2.10;1.92;;;;;;;;;;5034954;28;20203;-83
2023/06/06 06:14:57;;;;;;;1.90;1.80;;;;;;;;;;5049608;28;20208;-83
2023/06/06 06:17:26;;;;;;;2.10;1.90;;;;;;;;;;5057853;28;20665;-82
2023/06/06 06:19:53;;;;;;;2.40;2.20;;;;;;;;;;5057229;28;20305;-83
2023/06/06 06:22:22;;;;;;;1.73;1.63;;;;;;;;;;5042244;28;20194;-83
2023/06/06 06:24:51;;;;;;;1.85;1.42;;;;;;;;;;5044977;28;20229;-84
2023/06/06 06:27:18;;;;;;;2.10;1.88;;;;;;;;;;5058092;28;20224;-82
2023/06/06 06:29:46;;;;;;;1.77;1.67;;;;;;;;;;5053235;28;20221;-83
2023/06/06 06:32:14;;;;;;;2.33;2.13;;;;;;;;;;5056431;28;20198;-83
2023/06/06 06:34:42;;;;;;;1.90;1.80;;;;;;;;;;5059771;28;20858;-83
2023/06/06 06:37:09;;;;;;;2.20;2.00;;;;;;;;;;5049131;28;20289;-84
2023/06/06 06:39:37;;;;;;;2.20;2.10;;;;;;;;;;5049098;28;20700;-84
2023/06/06 06:42:07;;;;;;;1.88;1.63;;;;;;;;;;5045212;28;20281;-83
2023/06/06 06:44:35;;;;;;;1.73;1.63;;;;;;;;;;5052479;28;20232;-83
2023/06/06 06:47:03;;;;;;;1.75;1.65;;;;;;;;;;5061720;28;20208;-82
2023/06/06 06:49:31;;;;;;;1.52;1.42;;;;;;;;;;5040833;28;20612;-82
2023/06/06 06:52:00;;;;;;;1.70;1.60;;;;;;;;;;5040961;28;20857;-83
2023/06/06 06:54:27;;;;;;;1.58;1.48;;;;;;;;;;5055785;28;20284;-84
2023/06/06 06:56:55;;;;;;;1.85;1.75;;;;;;;;;;5052707;28;20208;-82
2023/06/06 06:59:25;;;;;;;1.52;1.42;;;;;;;;;;5043526;28;20717;-84
2023/06/06 07:01:53;;;;;;;2.15;1.67;;;;;;;;;;5062254;28;20215;-84
2023/06/06 07:04:21;;;;;;;2.63;2.10;;;;;;;;;;5064935;28;20317;-83
2023/06/06 07:06:48;;;;;;;1.95;1.77;;;;;;;;;;5035647;28;20237;-85
2023/06/06 07:09:18;;;;;;;1.65;1.55;;;;;;;;;;5038822;28;20292;-85
2023/06/06 07:11:46;;;;;;;2.13;2.03;;;;;;;;;;5055000;28;20197;-85
2023/06/06 07:14:13;;;;;;;2.15;1.95;;;;;;;;;;5056816;28;20282;-82
2023/06/06 07:16:43;;;;;;;1.92;1.70;;;;;;;;;;5051343;28;20449;-86
2023/06/06 07:19:11;;;;;;;2.55;2.35;;;;;;;;;;5056853;28;20197;-85
2023/06/06 07:21:38;;;;;;;2.35;2.03;;;;;;;;;;5050418;28;20647;-85
2023/06/06 07:24:06;;;;;;;4.78;1.80;;;;;;;;;;5052825;28;20217;-85
2023/06/06 07:26:34;;;;;;;1.70;1.60;;;;;;;;;;5059544;28;20198;-85
2023/06/06 07:29:01;;;;;;;1.70;1.60;;;;;;;;;;5059120;28;20248;-86
2023/06/06 07:31:29;;;;;;;2.03;1.88;;;;;;;;;;5058481;28;20277;-86
2023/06/06 07:33:59;;;;;;;2.00;1.80;;;;;;;;;;5048524;28;20208;-86
2023/06/06 07:36:27;;;;;;;1.95;1.85;;;;;;;;;;5040644;28;20209;-86
2023/06/06 07:38:55;;;;;;;1.95;1.85;;;;;;;;;;5063800;28;20280;-85
2023/06/06 07:41:22;;;;;;;1.77;1.67;;;;;;;;;;5064459;28;20601;-85
2023/06/06 07:43:50;;;;;;;2.65;2.00;;;;;;;;;;5051047;28;20601;-85
2023/06/06 07:46:18;;;;;;;1.92;1.83;;;;;;;;;;5057654;28;20222;-86
2023/06/06 07:48:45;;;;;;;1.77;1.65;;;;;;;;;;5060729;28;20797;-85
2023/06/06 07:51:14;;;;;;;3.15;2.42;;;;;;;;;;5057747;28;20305;-85
2023/06/06 07:53:43;;;;;;;2.45;1.92;;;;;;;;;;5038774;28;20665;-86
2023/06/06 07:56:13;;;;;;;2.65;2.45;;;;;;;;;;5037474;28;20336;-86
2023/06/06 07:58:41;;;;;;;1.73;1.63;;;;;;;;;;5056218;28;20674;-86
2023/06/06 08:01:10;;;;;;;2.85;2.25;;;;;;;;;;5050777;28;20291;-86
2023/06/06 08:03:38;;;;;;;1.73;1.63;;;;;;;;;;5055427;28;20206;-86
2023/06/06 08:06:06;;;;;;;2.00;1.90;;;;;;;;;;5053321;28;20669;-83
2023/06/06 08:08:35;;;;;;;2.78;2.10;;;;;;;;;;5047594;28;20212;-83
2023/06/06 08:11:03;;;;;;;2.20;2.00;;;;;;;;;;5049484;28;20699;-85
2023/06/06 08:13:30;;;;;;;3.40;2.50;;;;;;;;;;5055255;28;20198;-87
2023/06/06 08:15:58;;;;;;;2.35;2.00;;;;;;;;;;5063501;28;20200;-86
2023/06/06 08:18:25;;;;;;;1.70;1.60;;;;;;;;;;5057969;28;20197;-85
2023/06/06 08:20:53;;;;;;;3.55;2.75;;;;;;;;;;5067299;28;20232;-87
2023/06/06 08:23:20;;;;;;;1.90;1.70;;;;;;;;;;5050960;28;20285;-86
2023/06/06 08:25:49;;;;;;;5.90;2.45;;;;;;;;;;5055192;28;20260;-86
2023/06/06 08:28:16;;;;;;;1.92;1.83;;;;;;;;;;5050865;28;20198;-88
2023/06/06 08:30:44;;;;;;;2.10;1.92;;;;;;;;;;5055032;28;20312;-86
2023/06/06 08:33:11;;;;;;;3.08;1.85;;;;;;;;;;5054719;28;20201;-87
2023/06/06 08:35:39;;;;;;;2.33;2.13;;;;;;;;;;5052870;28;20248;-88
2023/06/06 08:38:06;;;;;;;2.97;2.08;;;;;;;;;;5039085;28;20229;-87
2023/06/06 08:40:34;;;;;;;3.35;2.50;;;;;;;;;;5070513;28;20648;-87
2023/06/06 08:43:03;;;;;;;3.17;2.33;;;;;;;;;;5042523;28;20639;-87
2023/06/06 08:45:30;;;;;;;2.60;2.25;;;;;;;;;;5051367;28;20316;-88
2023/06/06 08:48:01;;;;;;;3.28;2.95;;;;;;;;;;5070312;28;20201;-88
2023/06/06 08:50:30;;;;;;;2.85;2.00;;;;;;;;;;5038953;28;20609;-88
2023/06/06 08:53:04;;;;;;;3.05;2.85;;;;;;;;;;5049267;28;20201;-88
2023/06/06 08:55:34;;;;;;;1.98;1.85;;;;;;;;;;5052140;28;20291;-91
2023/06/06 08:58:04;;;;;;;2.60;2.40;;;;;;;;;;5049210;28;20730;-87
2023/06/06 09:00:31;;;;;;;2.38;2.10;;;;;;;;;;5054405;28;20217;-89
2023/06/06 09:03:03;;;;;;;2.63;2.30;;;;;;;;;;5072869;28;20717;-91
2023/06/06 09:05:32;;;;;;;2.85;1.95;;;;;;;;;;5074895;28;20230;-88
2023/06/06 09:08:01;;;;;;;4.28;2.15;;;;;;;;;;5074792;28;20201;-88
2023/06/06 09:10:28;;;;;;;2.38;2.17;;;;;;;;;;5074982;28;20224;-88
2023/06/06 09:12:56;;;;;;;3.90;2.47;;;;;;;;;;5073417;28;20201;-88
2023/06/06 09:15:27;;;;;;;2.42;2.22;;;;;;;;;;5047234;28;20288;-88
2023/06/06 09:17:56;;;;;;;2.38;2.20;;;;;;;;;;5054293;28;20194;-87
2023/06/06 09:20:24;;;;;;;2.20;2.10;;;;;;;;;;5058024;28;20748;-86
2023/06/06 09:22:53;;;;;;;2.40;2.20;;;;;;;;;;5048372;28;20194;-86
2023/06/06 09:25:22;;;;;;;3.63;1.75;;;;;;;;;;5048526;28;20234;-87
2023/06/06 09:28:03;;;;;;;2.20;2.00;;;;;;;;;;5054322;28;20285;-87
2023/06/06 09:30:35;;;;;;;2.40;2.00;;;;;;;;;;5046566;28;20214;-88
2023/06/06 09:33:04;;;;;;;2.50;2.30;;;;;;;;;;5046035;28;20296;-86
2023/06/06 09:35:33;;;;;;;2.03;1.92;;;;;;;;;;5046207;28;20194;-86
2023/06/06 09:38:15;;;;;;;1.80;1.70;;;;;;;;;;5041417;28;20279;-87
2023/06/06 09:40:46;;;;;;;1.90;1.80;;;;;;;;;;5041761;28;20249;-87
2023/06/06 09:43:15;;;;;;;2.40;2.20;;;;;;;;;;5050931;28;20202;-89
2023/06/06 09:45:51;;;;;;;2.10;2.00;;;;;;;;;;5058405;28;20229;-89
2023/06/06 09:48:22;;;;;;;2.00;1.85;;;;;;;;;;5048069;28;20895;-86
2023/06/06 09:50:50;;;;;;;2.60;2.10;;;;;;;;;;5042374;28;20229;-87
2023/06/06 09:53:18;;;;;;;2.72;2.38;;;;;;;;;;5054552;28;20197;-87
2023/06/06 09:55:47;;;;;;;4.20;2.15;;;;;;;;;;5049186;28;20205;-88
2023/06/06 09:58:17;;;;;;;1.98;1.88;;;;;;;;;;5041346;28;20263;-87
2023/06/06 10:00:46;;;;;;;1.80;1.70;;;;;;;;;;5051193;28;20217;-86
2023/06/06 10:03:19;;;;;;;2.47;2.28;;;;;;;;;;5038779;28;20194;-87
2023/06/06 10:05:48;;;;;;;2.20;2.00;;;;;;;;;;5050205;28;20201;-87
2023/06/06 10:08:17;;;;;;;4.55;3.03;;;;;;;;;;5053121;28;20202;-88
2023/06/06 10:10:47;;;;;;;2.35;2.15;;;;;;;;;;5046375;28;20226;-87
2023/06/06 10:13:15;;;;;;;2.75;1.90;;;;;;;;;;5049961;28;20209;-87
2023/06/06 10:15:43;;;;;;;2.47;2.28;;;;;;;;;;5051925;28;20654;-86
2023/06/06 10:18:12;;;;;;;1.95;1.83;;;;;;;;;;5046281;28;20678;-87
2023/06/06 10:20:41;;;;;;;2.03;1.88;;;;;;;;;;5052037;28;20303;-88
2023/06/06 10:23:11;;;;;;;2.05;1.80;;;;;;;;;;5041373;28;20229;-86
2023/06/06 10:25:38;;;;;;;2.78;1.95;;;;;;;;;;5056277;28;20206;-88
2023/06/06 10:28:13;;;;;;;2.78;2.25;;;;;;;;;;5050176;28;20317;-88
2023/06/06 10:30:57;;;;;;;3.47;2.22;;;;;;;;;;5046697;28;20224;-85
2023/06/06 10:33:42;;;;;;;2.85;2.00;;;;;;;;;;5037664;28;20198;-86
2023/06/06 10:36:15;;;;;;;2.60;2.40;;;;;;;;;;5033427;28;20229;-86
2023/06/06 10:38:45;;;;;;;2.25;2.05;;;;;;;;;;5045607;28;20208;-86
2023/06/06 10:41:17;;;;;;;2.22;1.95;;;;;;;;;;5051592;28;20313;-86
2023/06/06 10:43:55;;;;;;;3.30;2.38;;;;;;;;;;5053203;28;20174;-87
2023/06/06 10:46:22;;;;;;;2.65;2.45;;;;;;;;;;5053316;28;20230;-89
2023/06/06 10:48:58;;;;;;;2.70;2.50;;;;;;;;;;5052769;28;20221;-87
2023/06/06 10:51:36;;;;;;;2.65;2.45;;;;;;;;;;5052323;28;20194;-86
2023/06/06 10:54:21;;;;;;;2.35;2.15;;;;;;;;;;5052666;28;20223;-85
2023/06/06 10:56:52;;;;;;;2.95;2.35;;;;;;;;;;5044610;28;20221;-89
2023/06/06 10:59:31;;;;;;;2.95;2.75;;;;;;;;;;5052346;28;20209;-91
2023/06/06 11:01:59;;;;;;;1.85;1.75;;;;;;;;;;5053976;28;20198;-89
2023/06/06 11:04:29;;;;;;;1.80;1.70;;;;;;;;;;5052236;28;20292;-88
2023/06/06 11:07:18;;;;;;;1.65;1.55;;;;;;;;;;5042531;28;20316;-88
2023/06/06 11:09:48;;;;;;;2.00;1.90;;;;;;;;;;5033274;28;20222;-90
2023/06/06 11:12:30;;;;;;;2.10;2.00;;;;;;;;;;5033409;28;20683;-90
2023/06/06 11:15:00;;;;;;;3.00;2.78;;;;;;;;;;5033514;28;20620;-89
2023/06/06 11:17:44;;;;;;;2.40;2.20;;;;;;;;;;5043899;28;20643;-89
2023/06/06 11:20:19;;;;;;;2.00;1.90;;;;;;;;;;5053478;28;20232;-89
2023/06/06 11:23:01;;;;;;;2.30;2.10;;;;;;;;;;5045538;28;20205;-89
2023/06/06 11:25:33;;;;;;;2.65;2.08;;;;;;;;;;5035075;28;20265;-91
2023/06/06 11:28:00;;;;;;;3.53;2.55;;;;;;;;;;5036063;28;20222;-89
2023/06/06 11:30:32;;;;;;;2.85;2.63;;;;;;;;;;5038083;28;20230;-89
2023/06/06 11:33:00;;;;;;;2.60;2.15;;;;;;;;;;5035461;28;20229;-90
2023/06/06 11:35:28;;;;;;;2.60;2.40;;;;;;;;;;5034216;28;20307;-89
2023/06/06 11:37:58;;;;;;;2.70;2.50;;;;;;;;;;5033392;28;20632;-90
2023/06/06 11:40:26;;;;;;;2.45;2.25;;;;;;;;;;5033636;28;20950;-88
2023/06/06 11:42:54;;;;;;;2.70;2.50;;;;;;;;;;5032682;28;20241;-88
2023/06/06 11:45:22;;;;;;;2.30;2.10;;;;;;;;;;5033552;28;20212;-88
2023/06/06 11:47:51;;;;;;;2.65;2.30;;;;;;;;;;5052371;28;20253;-88
2023/06/06 11:50:28;;;;;;;2.13;1.95;;;;;;;;;;5052534;28;20587;-89
2023/06/06 11:52:57;;;;;;;1.95;1.85;;;;;;;;;;5052814;28;20186;-89
2023/06/06 11:55:37;;;;;;;2.30;2.20;;;;;;;;;;5052719;28;20650;-88
2023/06/06 11:58:04;;;;;;;3.20;2.50;;;;;;;;;;5037579;28;20194;-90
2023/06/06 12:00:33;;;;;;;2.70;2.50;;;;;;;;;;5034024;28;20301;-87
2023/06/06 12:03:01;;;;;;;2.60;1.92;;;;;;;;;;5035086;28;20541;-91
2023/06/06 12:05:28;;;;;;;2.60;2.40;;;;;;;;;;5052964;28;20198;-90
2023/06/06 12:07:59;;;;;;;3.00;2.80;;;;;;;;;;5053727;28;20320;-89
2023/06/06 12:10:29;;;;;;;2.55;2.35;;;;;;;;;;5059696;28;20221;-90
2023/06/06 12:12:57;;;;;;;2.40;2.22;;;;;;;;;;5058096;28;20571;-90
2023/06/06 12:15:27;;;;;;;2.38;1.83;;;;;;;;;;5062409;28;20205;-89
2023/06/06 12:18:01;;;;;;;2.35;2.25;;;;;;;;;;5057774;28;20248;-90
2023/06/06 12:20:29;;;;;;;2.30;2.10;;;;;;;;;;5055594;28;20241;-91
2023/06/06 12:22:59;;;;;;;2.05;1.92;;;;;;;;;;5058326;28;20217;-90
2023/06/06 12:25:27;;;;;;;2.17;2.08;;;;;;;;;;5056861;28;20289;-91
2023/06/06 12:28:09;;;;;;;2.58;2.35;;;;;;;;;;5050122;28;20226;-89
2023/06/06 12:30:38;;;;;;;2.63;2.42;;;;;;;;;;5058096;28;20220;-89
2023/06/06 12:33:07;;;;;;;2.58;2.38;;;;;;;;;;5044382;28;20206;-89
2023/06/06 12:35:34;;;;;;;2.50;2.30;;;;;;;;;;5039239;28;20217;-91
2023/06/06 12:38:04;;;;;;;2.28;2.08;;;;;;;;;;5056952;28;20626;-88
2023/06/06 12:40:34;;;;;;;2.78;2.50;;;;;;;;;;5051399;28;20225;-89
2023/06/06 12:43:04;;;;;;;2.80;2.60;;;;;;;;;;5046513;28;20198;-87
2023/06/06 12:45:36;;;;;;;4.95;3.00;;;;;;;;;;5042922;28;20205;-91
2023/06/06 12:48:03;;;;;;;2.17;1.98;;;;;;;;;;5051247;28;20222;-90
2023/06/06 12:50:31;;;;;;;2.90;2.60;;;;;;;;;;5057019;28;20253;-90
2023/06/06 12:52:59;;;;;;;2.80;2.60;;;;;;;;;;5061579;28;20197;-90
2023/06/06 12:55:27;;;;;;;2.83;2.35;;;;;;;;;;5068125;28;20251;-92
2023/06/06 12:57:55;;;;;;;2.83;2.45;;;;;;;;;;5057325;28;20236;-91
2023/06/06 13:00:23;;;;;;;2.17;2.08;;;;;;;;;;5055953;28;20232;-89
2023/06/06 13:02:51;;;;;;;3.33;3.03;;;;;;;;;;5045772;28;20258;-92
2023/06/06 13:05:18;;;;;;;2.55;2.38;;;;;;;;;;5039324;28;20285;-89
2023/06/06 13:07:46;;;;;;;2.17;1.98;;;;;;;;;;5040025;28;20567;-92
2023/06/06 13:10:13;;;;;;;4.00;2.28;;;;;;;;;;5055777;28;20300;-89
2023/06/06 13:12:43;;;;;;;2.42;2.25;;;;;;;;;;5047727;28;20209;-90
2023/06/06 13:15:11;;;;;;;2.75;2.55;;;;;;;;;;5055515;28;20253;-90
2023/06/06 13:17:39;;;;;;;2.22;2.13;;;;;;;;;;5073156;28;20236;-91
2023/06/06 13:20:10;;;;;;;2.55;2.35;;;;;;;;;;5056608;28;20308;-88
2023/06/06 13:22:37;;;;;;;3.10;2.80;;;;;;;;;;5058379;28;20197;-91
2023/06/06 13:25:06;;;;;;;2.45;2.25;;;;;;;;;;5054202;28;20714;-88
2023/06/06 13:27:34;;;;;;;2.17;1.98;;;;;;;;;;5060320;28;20456;-89
2023/06/06 13:30:03;;;;;;;2.05;1.95;;;;;;;;;;5054628;28;20240;-89
2023/06/06 13:32:30;;;;;;;2.20;2.00;;;;;;;;;;5053932;28;20198;-88
2023/06/06 13:34:58;;;;;;;2.40;2.20;;;;;;;;;;5035467;28;20285;-89
2023/06/06 13:37:26;;;;;;;5.13;2.13;;;;;;;;;;5057384;28;20208;-90
2023/06/06 13:39:53;;;;;;;2.72;2.53;;;;;;;;;;5054601;28;20252;-89
2023/06/06 13:42:21;;;;;;;3.10;2.90;;;;;;;;;;5044473;28;20635;-90
2023/06/06 13:44:48;;;;;;;1.80;1.70;;;;;;;;;;5043541;28;20619;-89
2023/06/06 13:47:18;;;;;;;4.20;2.67;;;;;;;;;;5053441;28;20601;-88
2023/06/06 13:49:46;;;;;;;2.40;2.20;;;;;;;;;;5053196;28;20232;-88
2023/06/06 13:52:13;;;;;;;1.85;1.70;;;;;;;;;;5053003;28;20666;-89
2023/06/06 13:54:42;;;;;;;1.80;1.70;;;;;;;;;;5053340;28;20662;-89
2023/06/06 13:57:12;;;;;;;2.00;1.90;;;;;;;;;;5051376;28;20198;-88
2023/06/06 13:59:40;;;;;;;2.60;2.00;;;;;;;;;;5039192;28;20686;-90
2023/06/06 14:02:09;;;;;;;2.30;2.10;;;;;;;;;;5034247;28;20194;-89
2023/06/06 14:04:39;;;;;;;2.30;2.17;;;;;;;;;;5037488;28;20203;-90
2023/06/06 14:07:07;;;;;;;2.33;2.00;;;;;;;;;;5058229;28;20186;-89
2023/06/06 14:09:35;;;;;;;1.80;1.70;;;;;;;;;;5047806;28;20218;-89
2023/06/06 14:12:02;;;;;;;2.25;2.05;;;;;;;;;;5051727;28;20569;-88
2023/06/06 14:14:30;;;;;;;2.60;2.40;;;;;;;;;;5054878;28;20201;-89
2023/06/06 14:16:58;;;;;;;2.42;2.22;;;;;;;;;;5042664;28;20292;-89
2023/06/06 14:19:35;;;;;;;2.05;1.92;;;;;;;;;;5050130;28;20217;-89
2023/06/06 14:22:23;;;;;;;1.70;1.60;;;;;;;;;;5053124;28;20578;-89
2023/06/06 14:24:51;;;;;;;2.42;2.20;;;;;;;;;;5053526;28;20193;-87
2023/06/06 14:27:19;;;;;;;2.00;1.88;;;;;;;;;;5052756;28;20233;-89
2023/06/06 14:29:47;;;;;;;1.75;1.65;;;;;;;;;;5052982;28;20228;-89
2023/06/06 14:32:15;;;;;;;1.70;1.60;;;;;;;;;;5051216;28;20224;-87
2023/06/06 14:34:44;;;;;;;2.00;1.88;;;;;;;;;;5032420;28;20729;-89
2023/06/06 14:37:13;;;;;;;2.80;1.95;;;;;;;;;;5032864;28;20244;-87
2023/06/06 14:39:41;;;;;;;2.17;2.08;;;;;;;;;;5032491;28;20222;-88
2023/06/06 14:42:10;;;;;;;1.73;1.63;;;;;;;;;;5038220;28;20277;-88
2023/06/06 14:44:38;;;;;;;2.25;1.95;;;;;;;;;;5052716;28;20202;-87
2023/06/06 14:47:07;;;;;;;1.92;1.83;;;;;;;;;;5067544;28;20653;-89
2023/06/06 14:49:38;;;;;;;3.15;2.10;;;;;;;;;;5054294;28;20230;-87
2023/06/06 14:52:07;;;;;;;2.92;2.42;;;;;;;;;;5052858;28;20273;-87
2023/06/06 14:54:38;;;;;;;1.70;1.60;;;;;;;;;;5052420;28;20277;-88